createdAt,value
2022-10-10T00:01:52.727Z,11.00
2022-10-10T00:04:20.493Z,10.00
2022-10-10T00:06:48.204Z,10.50
2022-10-10T00:09:16.721Z,12.00
2022-10-10T00:11:44.412Z,14.00
2022-10-10T00:14:13.135Z,23.00
2022-10-10T00:16:42.771Z,32.33
2022-10-10T00:19:12.482Z,30.00
2022-10-10T00:21:42.232Z,26.00
2022-10-10T00:24:11.687Z,24.33
2022-10-10T00:26:40.324Z,18.67
2022-10-10T00:29:07.996Z,10.00
2022-10-10T00:31:36.601Z,9.33
2022-10-10T00:34:05.432Z,9.67
2022-10-10T00:36:33.890Z,9.33
2022-10-10T00:39:02.355Z,9.67
2022-10-10T00:41:30.846Z,8.00
2022-10-10T00:44:12.213Z,9.00
2022-10-10T00:46:41.210Z,8.00
2022-10-10T00:49:26.706Z,10.00
2022-10-10T00:51:59.578Z,11.00
2022-10-10T00:54:30.024Z,9.33
2022-10-10T00:57:11.362Z,11.50
2022-10-10T00:59:42.960Z,15.00
2022-10-10T01:02:10.637Z,13.50
2022-10-10T01:04:45.796Z,11.00
2022-10-10T01:07:28.876Z,10.00
2022-10-10T01:10:04.592Z,10.67
2022-10-10T01:12:52.053Z,9.00
2022-10-10T01:16:07.390Z,8.00
2022-10-10T01:19:23.252Z,10.00
2022-10-10T01:22:34.531Z,8.67
2022-10-10T01:26:02.419Z,11.00
2022-10-10T01:28:47.666Z,14.00
2022-10-10T01:31:22.644Z,10.00
2022-10-10T01:34:20.318Z,9.33
2022-10-10T01:37:40.755Z,8.00
2022-10-10T01:40:42.318Z,9.00
2022-10-10T01:43:12.444Z,10.00
2022-10-10T01:45:53.595Z,8.67
2022-10-10T01:48:31.422Z,11.00
2022-10-10T01:51:29.471Z,9.00
2022-10-10T01:54:25.712Z,9.00
2022-10-10T01:57:20.400Z,10.00
2022-10-10T02:00:19.443Z,14.00
2022-10-10T02:03:10.246Z,19.00
2022-10-10T02:06:04.637Z,23.00
2022-10-10T02:08:42.888Z,25.00
2022-10-10T02:11:13.508Z,15.50
2022-10-10T02:14:19.323Z,18.00
2022-10-10T02:16:52.244Z,15.00
2022-10-10T02:19:23.688Z,21.00
2022-10-10T02:21:54.067Z,23.00
2022-10-10T02:24:24.882Z,9.50
2022-10-10T02:27:09.752Z,21.67
2022-10-10T02:29:44.202Z,17.50
2022-10-10T02:32:40.643Z,19.67
2022-10-10T02:35:23.829Z,18.00
2022-10-10T02:37:55.550Z,16.50
2022-10-10T02:40:30.077Z,18.67
2022-10-10T02:43:03.569Z,23.00
2022-10-10T02:45:33.463Z,19.00
2022-10-10T02:48:03.127Z,17.50
2022-10-10T02:50:32.895Z,18.00
2022-10-10T02:53:01.662Z,17.00
2022-10-10T02:55:30.313Z,14.00
2022-10-10T02:57:58.897Z,14.00
2022-10-10T03:00:26.816Z,9.00
2022-10-10T03:02:55.427Z,13.00
2022-10-10T03:05:24.006Z,11.00
2022-10-10T03:07:52.633Z,11.67
2022-10-10T03:10:21.280Z,14.50
2022-10-10T03:12:49.381Z,13.50
2022-10-10T03:15:17.478Z,17.00
2022-10-10T03:17:45.432Z,11.00
2022-10-10T03:20:14.134Z,13.33
2022-10-10T03:22:41.848Z,12.00
2022-10-10T03:25:10.548Z,10.33
2022-10-10T03:27:39.184Z,11.00
2022-10-10T03:30:07.974Z,11.00
2022-10-10T03:32:35.648Z,12.00
2022-10-10T03:35:04.729Z,11.00
2022-10-10T03:37:32.428Z,13.00
2022-10-10T03:40:01.153Z,11.67
2022-10-10T03:42:29.698Z,10.00
2022-10-10T03:44:58.171Z,10.33
2022-10-10T03:47:26.683Z,11.00
2022-10-10T03:49:58.349Z,11.00
2022-10-10T03:52:26.845Z,10.00
2022-10-10T03:54:54.571Z,12.00
2022-10-10T03:57:22.454Z,12.50
2022-10-10T03:59:50.959Z,10.00
2022-10-10T04:02:19.519Z,11.00
2022-10-10T04:04:47.303Z,10.00
2022-10-10T04:07:17.094Z,9.40
2022-10-10T04:09:45.584Z,10.00
2022-10-10T04:12:15.176Z,10.00
2022-10-10T04:14:44.787Z,9.00
2022-10-10T04:17:12.508Z,9.00
2022-10-10T04:19:41.128Z,9.00
2022-10-10T04:22:11.332Z,8.00
2022-10-10T04:24:39.193Z,11.00
2022-10-10T04:27:06.915Z,11.00
2022-10-10T04:29:35.504Z,11.33
2022-10-10T04:32:04.220Z,10.67
2022-10-10T04:34:32.941Z,12.67
2022-10-10T04:37:00.697Z,9.50
2022-10-10T04:39:29.260Z,11.00
2022-10-10T04:41:57.167Z,14.00
2022-10-10T04:44:24.916Z,18.00
2022-10-10T04:46:53.498Z,12.00
2022-10-10T04:49:21.433Z,15.00
2022-10-10T04:51:50.843Z,16.33
2022-10-10T04:54:18.546Z,12.00
2022-10-10T04:56:47.169Z,11.33
2022-10-10T04:59:15.767Z,12.00
2022-10-10T05:01:44.492Z,11.00
2022-10-10T05:04:14.357Z,14.00
2022-10-10T05:06:44.792Z,40.25
2022-10-10T05:09:14.343Z,33.00
2022-10-10T05:11:43.919Z,35.33
2022-10-10T05:14:13.540Z,31.00
2022-10-10T05:16:43.012Z,26.00
2022-10-10T05:19:12.532Z,27.33
2022-10-10T05:21:42.041Z,26.33
2022-10-10T05:24:11.511Z,26.00
2022-10-10T05:26:43.268Z,21.00
2022-10-10T05:29:12.921Z,26.00
2022-10-10T05:31:41.577Z,15.00
2022-10-10T05:34:15.194Z,10.67
2022-10-10T05:36:43.653Z,7.00
2022-10-10T05:39:12.144Z,10.00
2022-10-10T05:41:39.844Z,11.50
2022-10-10T05:44:10.290Z,19.33
2022-10-10T05:46:39.694Z,25.00
2022-10-10T05:49:09.207Z,18.67
2022-10-10T05:51:37.860Z,15.00
2022-10-10T05:54:05.713Z,10.00
2022-10-10T05:56:33.450Z,10.00
2022-10-10T05:59:02.860Z,10.00
2022-10-10T06:01:31.529Z,10.00
2022-10-10T06:04:00.160Z,10.00
2022-10-10T06:06:27.885Z,8.00
2022-10-10T06:08:56.735Z,11.00
2022-10-10T06:11:26.228Z,11.33
2022-10-10T06:13:54.490Z,7.00
2022-10-10T06:16:28.148Z,10.00
2022-10-10T06:18:57.338Z,15.00
2022-10-10T06:21:26.149Z,11.00
2022-10-10T06:23:54.802Z,9.33
2022-10-10T06:26:22.585Z,9.00
2022-10-10T06:28:50.986Z,9.00
2022-10-10T06:31:18.986Z,8.00
2022-10-10T06:33:48.254Z,19.00
2022-10-10T06:36:17.705Z,13.00
2022-10-10T06:38:46.768Z,12.00
2022-10-10T06:41:15.449Z,10.00
2022-10-10T06:43:44.348Z,9.00
2022-10-10T06:46:13.494Z,11.33
2022-10-10T06:48:41.921Z,11.00
2022-10-10T06:51:16.323Z,9.00
2022-10-10T06:53:46.118Z,7.67
2022-10-10T06:56:24.914Z,8.33
2022-10-10T06:58:56.438Z,8.00
2022-10-10T07:01:27.040Z,8.00
2022-10-10T07:03:55.685Z,7.00
2022-10-10T07:06:23.697Z,8.00
2022-10-10T07:08:51.394Z,8.00
2022-10-10T07:11:19.144Z,8.00
2022-10-10T07:13:46.817Z,4.00
2022-10-10T07:16:14.449Z,4.00
2022-10-10T07:18:42.087Z,4.00
2022-10-10T07:21:12.399Z,4.00
2022-10-10T07:23:42.033Z,4.00
2022-10-10T07:26:21.015Z,4.86
2022-10-10T07:28:50.117Z,4.00
2022-10-10T07:31:17.803Z,6.00
2022-10-10T07:33:50.806Z,5.50
2022-10-10T07:36:19.885Z,4.50
2022-10-10T07:38:52.248Z,5.00
2022-10-10T07:41:21.625Z,4.00
2022-10-10T07:43:54.379Z,4.00
2022-10-10T07:46:22.188Z,5.00
2022-10-10T07:48:51.788Z,8.60
2022-10-10T07:51:19.481Z,4.00
2022-10-10T07:53:47.208Z,4.00
2022-10-10T07:56:14.872Z,4.00
2022-10-10T07:58:42.543Z,4.00
2022-10-10T08:01:13.134Z,4.00
2022-10-10T08:03:41.344Z,4.50
2022-10-10T08:06:14.931Z,5.00
2022-10-10T08:08:50.746Z,4.00
2022-10-10T08:11:21.901Z,3.00
2022-10-10T08:13:50.517Z,3.00
2022-10-10T08:16:20.587Z,3.00
2022-10-10T08:18:48.314Z,3.00
2022-10-10T08:21:16.971Z,4.00
2022-10-10T08:23:44.942Z,4.00
2022-10-10T08:26:17.183Z,3.00
2022-10-10T08:28:45.990Z,3.00
2022-10-10T08:31:21.475Z,4.00
2022-10-10T08:33:51.906Z,7.00
2022-10-10T08:36:24.138Z,3.00
2022-10-10T08:38:57.475Z,4.00
2022-10-10T08:42:01.330Z,8.00
2022-10-10T08:44:48.542Z,7.40
2022-10-10T08:47:37.054Z,6.33
2022-10-10T08:50:24.494Z,7.67
2022-10-10T08:53:08.981Z,4.00
2022-10-10T08:55:46.477Z,4.57
2022-10-10T08:58:48.247Z,3.00
2022-10-10T09:01:28.011Z,4.00
2022-10-10T09:04:01.328Z,3.00
2022-10-10T09:07:01.289Z,4.00
2022-10-10T09:10:13.233Z,7.50
2022-10-10T09:13:11.102Z,6.50
2022-10-10T09:15:58.465Z,3.00
2022-10-10T09:19:44.887Z,2.00
2022-10-10T09:22:25.861Z,12.83
2022-10-10T09:25:19.416Z,17.50
2022-10-10T09:28:25.230Z,2.00
2022-10-10T09:30:58.173Z,3.00
2022-10-10T09:33:46.563Z,7.00
2022-10-10T09:36:23.767Z,4.00
2022-10-10T09:38:59.587Z,3.00
2022-10-10T09:41:43.871Z,2.00
2022-10-10T09:44:14.985Z,3.00
2022-10-10T09:46:42.862Z,3.00
2022-10-10T09:49:17.312Z,3.00
2022-10-10T09:51:48.983Z,3.20
2022-10-10T09:54:20.200Z,3.00
2022-10-10T09:56:57.631Z,3.00
2022-10-10T09:59:46.698Z,4.00
2022-10-10T10:02:27.156Z,2.00
2022-10-10T10:04:56.132Z,3.00
2022-10-10T10:07:36.478Z,4.00
2022-10-10T10:10:36.181Z,7.00
2022-10-10T10:13:04.003Z,3.50
2022-10-10T10:15:33.320Z,11.00
2022-10-10T10:18:30.996Z,2.00
2022-10-10T10:21:07.413Z,1.00
2022-10-10T10:23:56.855Z,3.00
2022-10-10T10:26:47.836Z,5.00
2022-10-10T10:29:33.983Z,3.00
2022-10-10T10:32:28.694Z,3.00
2022-10-10T10:35:12.880Z,5.00
2022-10-10T10:38:06.880Z,3.00
2022-10-10T10:40:50.059Z,3.50
2022-10-10T10:43:40.282Z,3.25
2022-10-10T10:46:57.473Z,5.00
2022-10-10T10:49:52.870Z,6.00
2022-10-10T10:53:03.356Z,5.60
2022-10-10T10:55:39.299Z,4.60
2022-10-10T11:02:10.435Z,3.00
2022-10-10T11:05:18.787Z,4.00
2022-10-10T11:08:26.816Z,7.67
2022-10-10T11:11:28.902Z,5.60
2022-10-10T11:14:36.948Z,4.80
2022-10-10T11:17:44.004Z,6.20
2022-10-10T11:20:43.782Z,5.00
2022-10-10T11:23:25.893Z,2.00
2022-10-10T11:26:08.489Z,4.00
2022-10-10T11:29:03.388Z,8.00
2022-10-10T11:32:01.005Z,5.60
2022-10-10T11:34:42.644Z,4.00
2022-10-10T11:37:29.395Z,3.00
2022-10-10T11:40:06.225Z,2.33
2022-10-10T11:43:08.420Z,3.00
2022-10-10T11:45:53.667Z,2.67
2022-10-10T11:49:12.033Z,2.00
2022-10-10T11:52:09.435Z,2.00
2022-10-10T11:55:40.931Z,16.00
2022-10-10T11:58:09.280Z,3.00
2022-10-10T12:00:50.578Z,2.00
2022-10-10T12:03:20.066Z,2.00
2022-10-10T12:06:28.138Z,2.00
2022-10-10T12:09:27.488Z,2.00
2022-10-10T12:12:08.215Z,3.00
2022-10-10T12:14:44.868Z,3.00
2022-10-10T12:17:30.113Z,3.00
2022-10-10T12:20:30.696Z,2.00
2022-10-10T12:23:30.529Z,2.00
2022-10-10T12:25:59.940Z,2.00
2022-10-10T12:28:38.147Z,2.00
2022-10-10T12:31:06.556Z,4.00
2022-10-10T12:33:34.929Z,2.00
2022-10-10T12:36:19.555Z,7.00
2022-10-10T12:39:08.276Z,2.20
2022-10-10T12:41:57.222Z,3.00
2022-10-10T12:44:42.961Z,2.00
2022-10-10T12:47:14.989Z,2.20
2022-10-10T12:50:18.547Z,2.00
2022-10-10T12:52:57.342Z,2.00
2022-10-10T12:55:45.199Z,3.00
2022-10-10T12:58:37.471Z,3.00
2022-10-10T13:01:33.224Z,2.00
2022-10-10T13:04:02.134Z,9.50
2022-10-10T13:06:59.196Z,3.00
2022-10-10T13:09:35.582Z,3.00
2022-10-10T13:12:22.190Z,1.40
2022-10-10T13:14:50.667Z,2.00
2022-10-10T13:17:42.334Z,5.00
2022-10-10T13:20:39.809Z,11.00
2022-10-10T13:23:14.577Z,6.25
2022-10-10T13:25:46.921Z,3.00
2022-10-10T13:28:22.165Z,4.20
2022-10-10T13:30:52.638Z,6.33
2022-10-10T13:33:28.982Z,5.00
2022-10-10T13:36:16.164Z,2.00
2022-10-10T13:38:47.177Z,11.50
2022-10-10T13:41:19.254Z,13.67
2022-10-10T13:43:47.700Z,2.00
2022-10-10T13:46:33.522Z,3.00
2022-10-10T13:49:02.157Z,1.00
2022-10-10T13:51:47.469Z,3.40
2022-10-10T13:54:43.542Z,8.00
2022-10-10T13:57:27.937Z,5.00
2022-10-10T14:00:17.543Z,11.00
2022-10-10T14:02:47.289Z,4.00
2022-10-10T14:05:30.901Z,2.80
2022-10-10T14:08:01.476Z,5.80
2022-10-10T14:10:37.210Z,33.67
2022-10-10T14:13:06.065Z,21.67
2022-10-10T14:15:41.709Z,6.00
2022-10-10T14:18:24.780Z,17.67
2022-10-10T14:20:54.043Z,6.00
2022-10-10T14:23:23.488Z,12.50
2022-10-10T14:25:53.416Z,14.25
2022-10-10T14:28:27.812Z,10.00
2022-10-10T14:30:57.315Z,21.25
2022-10-10T14:33:27.797Z,22.00
2022-10-10T14:35:58.723Z,24.67
2022-10-10T14:38:28.368Z,30.75
2022-10-10T14:40:56.571Z,27.00
2022-10-10T14:43:25.340Z,23.00
2022-10-10T14:45:54.659Z,21.67
2022-10-10T14:48:23.342Z,16.33
2022-10-10T14:50:51.962Z,13.00
2022-10-10T14:53:21.323Z,20.75
2022-10-10T14:55:55.320Z,24.00
2022-10-10T14:58:24.809Z,17.67
2022-10-10T15:00:56.984Z,12.67
2022-10-10T15:03:25.490Z,7.33
2022-10-10T15:05:53.229Z,4.00
2022-10-10T15:08:21.609Z,7.00
2022-10-10T15:10:50.061Z,7.00
2022-10-10T15:13:17.768Z,7.00
2022-10-10T15:15:48.285Z,6.67
2022-10-10T15:18:49.253Z,8.00
2022-10-10T15:21:13.024Z,8.67
2022-10-10T15:23:41.025Z,10.00
2022-10-10T15:26:09.556Z,11.00
2022-10-10T15:28:40.782Z,12.00
2022-10-10T15:31:09.464Z,14.50
2022-10-10T15:33:37.127Z,8.00
2022-10-10T15:36:10.179Z,13.00
2022-10-10T15:38:40.580Z,12.50
2022-10-10T15:41:10.840Z,11.00
2022-10-10T15:43:57.253Z,14.00
2022-10-10T15:46:28.970Z,20.00
2022-10-10T15:49:03.803Z,18.67
2022-10-10T15:51:32.402Z,17.67
2022-10-10T15:54:02.796Z,18.00
2022-10-10T15:56:31.805Z,15.00
2022-10-10T15:59:03.892Z,17.33
2022-10-10T16:01:32.807Z,19.33
2022-10-10T16:04:04.437Z,22.00
2022-10-10T16:06:34.402Z,23.67
2022-10-10T16:09:23.839Z,25.00
2022-10-10T16:11:52.991Z,24.00
2022-10-10T16:14:22.390Z,24.00
2022-10-10T16:16:52.036Z,51.33
2022-10-10T16:19:20.519Z,36.50
2022-10-10T16:21:50.536Z,27.67
2022-10-10T16:24:20.109Z,26.00
2022-10-10T16:26:50.809Z,27.00
2022-10-10T16:29:20.769Z,28.67
2022-10-10T16:31:49.344Z,29.00
2022-10-10T16:34:19.714Z,32.33
2022-10-10T16:36:49.176Z,35.50
2022-10-10T16:39:18.673Z,33.25
2022-10-10T16:41:49.129Z,24.67
2022-10-10T16:44:18.895Z,33.00
2022-10-10T16:46:47.496Z,32.67
2022-10-10T16:49:17.198Z,32.00
2022-10-10T16:51:46.585Z,30.75
2022-10-10T16:54:15.249Z,29.67
2022-10-10T16:56:44.736Z,31.33
2022-10-10T16:59:14.227Z,35.33
2022-10-10T17:01:42.001Z,35.00
2022-10-10T17:04:11.505Z,35.00
2022-10-10T17:06:41.064Z,40.00
2022-10-10T17:09:11.648Z,47.75
2022-10-10T17:11:41.241Z,50.50
2022-10-10T17:14:12.034Z,51.00
2022-10-10T17:19:33.000Z,57.00
2022-10-10T17:22:02.545Z,61.00
2022-10-10T17:24:32.079Z,60.00
2022-10-10T17:27:02.505Z,54.00
2022-10-10T17:29:32.956Z,51.00
2022-10-10T17:32:06.611Z,51.75
2022-10-10T17:34:36.552Z,50.50
2022-10-10T17:37:05.417Z,48.00
2022-10-10T17:39:35.005Z,49.00
2022-10-10T17:42:05.288Z,17.33
2022-10-10T17:44:39.108Z,48.00
2022-10-10T17:47:10.026Z,51.50
2022-10-10T17:49:41.306Z,59.00
2022-10-10T17:52:09.032Z,59.50
2022-10-10T17:54:36.760Z,60.00
2022-10-10T17:57:06.307Z,58.00
2022-10-10T17:59:34.122Z,61.00
2022-10-10T18:02:01.926Z,60.50
2022-10-10T18:04:31.579Z,53.25
2022-10-10T18:07:01.224Z,66.67
2022-10-10T18:09:30.809Z,70.00
2022-10-10T18:12:01.028Z,73.00
2022-10-10T18:14:30.727Z,73.00
2022-10-10T18:17:02.212Z,72.88
2022-10-10T18:19:34.129Z,80.25
2022-10-10T18:22:04.188Z,60.33
2022-10-10T18:24:34.214Z,68.33
2022-10-10T18:27:03.910Z,68.00
2022-10-10T18:29:31.713Z,65.00
2022-10-10T18:31:59.806Z,54.00
2022-10-10T18:34:29.440Z,60.33
2022-10-10T18:36:59.100Z,61.33
2022-10-10T18:39:32.224Z,60.00
2022-10-10T18:42:04.216Z,54.00
2022-10-10T18:44:32.056Z,56.00
2022-10-10T18:47:01.622Z,54.00
2022-10-10T18:49:29.902Z,50.00
2022-10-10T18:51:57.854Z,48.00
2022-10-10T18:54:30.349Z,51.25
2022-10-10T18:57:00.782Z,47.75
2022-10-10T18:59:32.156Z,44.00
2022-10-10T19:01:59.965Z,41.00
2022-10-10T19:04:28.675Z,39.00
2022-10-10T19:06:58.399Z,41.33
2022-10-10T19:09:27.989Z,37.33
2022-10-10T19:11:57.519Z,41.33
2022-10-10T19:14:27.168Z,47.00
2022-10-10T19:16:56.728Z,35.00
2022-10-10T19:19:24.584Z,37.00
2022-10-10T19:21:54.161Z,39.00
2022-10-10T19:24:23.724Z,39.00
2022-10-10T19:26:56.924Z,39.33
2022-10-10T19:29:28.884Z,43.33
2022-10-10T19:31:56.930Z,41.00
2022-10-10T19:34:26.501Z,39.67
2022-10-10T19:36:56.622Z,38.67
2022-10-10T19:39:26.208Z,40.00
2022-10-10T19:41:55.741Z,39.50
2022-10-10T19:44:25.259Z,37.00
2022-10-10T19:46:55.227Z,37.00
2022-10-10T19:49:24.743Z,38.67
2022-10-10T19:51:54.508Z,40.67
2022-10-10T19:54:24.190Z,39.00
2022-10-10T19:56:53.721Z,33.00
2022-10-10T19:59:23.143Z,32.00
2022-10-10T20:01:52.758Z,27.67
2022-10-10T20:04:21.629Z,28.00
2022-10-10T20:06:51.038Z,31.00
2022-10-10T20:09:20.638Z,38.33
2022-10-10T20:11:50.177Z,42.33
2022-10-10T20:14:19.600Z,37.50
2022-10-10T20:16:49.076Z,38.00
2022-10-10T20:19:17.705Z,34.67
2022-10-10T20:21:47.169Z,38.00
2022-10-10T20:24:16.897Z,32.00
2022-10-10T20:26:46.379Z,31.00
2022-10-10T20:29:15.995Z,30.00
2022-10-10T20:31:44.641Z,27.00
2022-10-10T20:34:14.123Z,28.00
2022-10-10T20:36:43.563Z,28.00
2022-10-10T20:39:14.581Z,25.33
2022-10-10T20:41:44.078Z,27.00
2022-10-10T20:44:15.096Z,24.67
2022-10-10T20:46:46.293Z,26.00
2022-10-10T20:49:21.886Z,25.33
2022-10-10T20:51:51.985Z,15.50
2022-10-10T20:54:23.616Z,19.00
2022-10-10T20:56:53.104Z,18.00
2022-10-10T20:59:24.669Z,19.00
2022-10-10T21:01:53.379Z,18.00
2022-10-10T21:04:22.806Z,22.00
2022-10-10T21:06:52.181Z,18.00
2022-10-10T21:09:20.964Z,19.67
2022-10-10T21:11:51.608Z,19.67
2022-10-10T21:14:20.524Z,19.67
2022-10-10T21:16:50.732Z,19.00
2022-10-10T21:19:20.586Z,20.00
2022-10-10T21:21:49.407Z,19.00
2022-10-10T21:24:17.988Z,17.00
2022-10-10T21:26:49.264Z,17.33
2022-10-10T21:29:18.473Z,19.00
2022-10-10T21:31:47.377Z,18.33
2022-10-10T21:34:19.510Z,18.33
2022-10-10T21:36:48.454Z,19.00
2022-10-10T21:39:17.393Z,17.00
2022-10-10T21:41:46.820Z,16.00
2022-10-10T21:44:16.355Z,16.00
2022-10-10T21:46:44.934Z,19.00
2022-10-10T21:49:14.474Z,20.00
2022-10-10T21:51:46.138Z,21.33
2022-10-10T21:54:15.896Z,15.00
2022-10-10T21:56:45.657Z,19.33
2022-10-10T21:59:15.095Z,20.33
2022-10-10T22:01:44.565Z,17.00
2022-10-10T22:04:13.951Z,21.00
2022-10-10T22:06:42.815Z,24.00
2022-10-10T22:09:12.250Z,23.33
2022-10-10T22:11:40.951Z,23.67
2022-10-10T22:14:10.395Z,23.33
2022-10-10T22:16:40.095Z,23.33
2022-10-10T22:19:08.806Z,22.67
2022-10-10T22:21:37.524Z,24.67
2022-10-10T22:24:09.094Z,24.00
2022-10-10T22:26:38.603Z,24.00
2022-10-10T22:29:07.257Z,22.00
2022-10-10T22:31:37.880Z,25.00
2022-10-10T22:34:08.032Z,24.00
2022-10-10T22:36:37.588Z,24.33
2022-10-10T22:39:07.419Z,25.00
2022-10-10T22:41:37.376Z,24.33
2022-10-10T22:44:06.190Z,22.00
2022-10-10T22:46:35.729Z,20.67
2022-10-10T22:49:04.761Z,19.00
2022-10-10T22:51:34.457Z,21.00
2022-10-10T22:54:03.123Z,21.00
2022-10-10T22:56:33.302Z,18.00
2022-10-10T22:59:01.860Z,21.00
2022-10-10T23:01:31.405Z,20.67
2022-10-10T23:04:03.542Z,19.33
2022-10-10T23:06:32.921Z,19.25
2022-10-10T23:09:02.284Z,18.00
2022-10-10T23:11:30.948Z,18.67
2022-10-10T23:13:59.538Z,17.67
2022-10-10T23:16:28.160Z,21.67
2022-10-10T23:18:57.032Z,21.00
2022-10-10T23:21:26.502Z,24.67
2022-10-10T23:23:55.469Z,22.00
2022-10-10T23:26:24.925Z,22.67
2022-10-10T23:28:54.448Z,22.33
2022-10-10T23:31:23.951Z,21.00
2022-10-10T23:33:52.525Z,24.00
2022-10-10T23:36:21.972Z,24.67
2022-10-10T23:38:51.491Z,24.67
2022-10-10T23:41:21.365Z,23.67
2022-10-10T23:43:50.009Z,22.00
2022-10-10T23:46:18.893Z,22.00
2022-10-10T23:48:47.479Z,24.00
2022-10-10T23:51:17.711Z,17.00
2022-10-10T23:53:47.141Z,21.00
2022-10-10T23:56:16.516Z,20.75
2022-10-10T23:58:45.152Z,19.67
